Time;durP1;ratioP1;P1;durP2;ratioP2;P2;SDS_P1;SDS_P2;PMS_P1;PMS_P2;Temp;Humidity;BMP_temperature;BMP_pressure;BME280_temperature;BME280_humidity;BME280_pressure;Samples;Min_cycle;Max_cycle;Signal;HPM_P1;HPM_P2
2022/03/04 00:02:04;;;;;;;31.80;12.13;;;;;;;;;;5010850;28;20022;-81
2022/03/04 00:04:30;;;;;;;31.38;13.02;;;;;;;;;;5010777;28;20026;-81
2022/03/04 00:06:55;;;;;;;32.65;12.32;;;;;;;;;;5010398;28;20022;-79
2022/03/04 00:09:21;;;;;;;31.42;12.80;;;;;;;;;;5011298;28;20027;-79
2022/03/04 00:11:49;;;;;;;29.00;11.27;;;;;;;;;;4992743;28;20476;-79
2022/03/04 00:14:15;;;;;;;29.30;11.30;;;;;;;;;;4993370;28;20030;-81
2022/03/04 00:16:40;;;;;;;32.15;12.57;;;;;;;;;;4992194;28;20030;-78
2022/03/04 00:19:06;;;;;;;37.20;12.27;;;;;;;;;;4991828;28;20030;-80
2022/03/04 00:21:36;;;;;;;29.50;12.32;;;;;;;;;;5008501;28;20392;-79
2022/03/04 00:24:02;;;;;;;31.83;12.25;;;;;;;;;;5009498;28;20069;-79
2022/03/04 00:26:27;;;;;;;33.53;12.32;;;;;;;;;;5010521;28;20049;-80
2022/03/04 00:28:52;;;;;;;26.40;10.30;;;;;;;;;;5009838;28;20064;-80
2022/03/04 00:31:18;;;;;;;33.00;10.73;;;;;;;;;;4992712;28;20019;-78
2022/03/04 00:33:43;;;;;;;35.35;12.18;;;;;;;;;;5010797;28;20023;-79
2022/03/04 00:36:08;;;;;;;25.80;10.05;;;;;;;;;;5010656;28;20029;-80
2022/03/04 00:38:33;;;;;;;36.03;12.57;;;;;;;;;;5010406;28;20026;-79
2022/03/04 00:40:59;;;;;;;28.50;11.48;;;;;;;;;;4992893;28;20084;-79
2022/03/04 00:43:24;;;;;;;32.75;11.98;;;;;;;;;;5011080;28;20072;-79
2022/03/04 00:45:51;;;;;;;32.25;12.25;;;;;;;;;;4993574;28;20457;-79
2022/03/04 00:48:16;;;;;;;35.13;11.90;;;;;;;;;;5009777;28;20030;-79
2022/03/04 00:50:41;;;;;;;33.83;11.65;;;;;;;;;;5005578;28;20037;-78
2022/03/04 00:53:06;;;;;;;33.50;11.85;;;;;;;;;;4988311;28;20037;-80
2022/03/04 00:55:35;;;;;;;37.78;13.43;;;;;;;;;;5005814;28;20090;-80
2022/03/04 00:58:00;;;;;;;37.42;12.25;;;;;;;;;;5004396;28;20026;-79
2022/03/04 01:00:25;;;;;;;32.55;12.93;;;;;;;;;;4985991;28;20018;-80
2022/03/04 01:02:50;;;;;;;29.55;11.77;;;;;;;;;;4984449;28;20022;-78
2022/03/04 01:05:16;;;;;;;33.47;12.50;;;;;;;;;;5004140;28;20030;-78
2022/03/04 01:07:41;;;;;;;27.13;11.52;;;;;;;;;;5005568;28;20030;-78
2022/03/04 01:10:06;;;;;;;29.27;11.95;;;;;;;;;;5006173;28;20035;-79
2022/03/04 01:12:32;;;;;;;30.52;12.15;;;;;;;;;;5006965;28;20031;-78
2022/03/04 01:14:57;;;;;;;36.38;12.38;;;;;;;;;;5007478;28;20030;-79
2022/03/04 01:17:22;;;;;;;30.27;12.52;;;;;;;;;;5006238;28;20030;-78
2022/03/04 01:19:47;;;;;;;37.42;12.68;;;;;;;;;;4989172;28;20034;-79
2022/03/04 01:22:13;;;;;;;33.15;12.13;;;;;;;;;;5007706;28;20033;-79
2022/03/04 01:24:38;;;;;;;29.08;11.60;;;;;;;;;;5007978;28;20023;-79
2022/03/04 01:27:03;;;;;;;28.33;11.38;;;;;;;;;;5008541;28;20046;-81
2022/03/04 01:29:28;;;;;;;26.75;10.93;;;;;;;;;;4990804;28;20019;-80
2022/03/04 01:31:54;;;;;;;31.70;11.27;;;;;;;;;;5007548;28;20022;-81
2022/03/04 01:34:19;;;;;;;24.33;10.50;;;;;;;;;;5009012;28;20026;-78
2022/03/04 01:36:44;;;;;;;34.47;12.27;;;;;;;;;;4990785;28;20022;-79
2022/03/04 01:39:09;;;;;;;28.77;12.30;;;;;;;;;;5008062;28;20022;-79
2022/03/04 01:41:35;;;;;;;29.63;11.05;;;;;;;;;;4991198;28;20026;-80
2022/03/04 01:44:00;;;;;;;30.48;12.13;;;;;;;;;;5010381;28;20026;-80
2022/03/04 01:46:29;;;;;;;26.52;11.27;;;;;;;;;;5009759;28;20022;-80
2022/03/04 01:48:54;;;;;;;27.75;11.65;;;;;;;;;;4990466;28;20396;-79
2022/03/04 01:51:19;;;;;;;26.20;11.85;;;;;;;;;;4991080;28;20022;-80
2022/03/04 01:53:44;;;;;;;30.77;12.02;;;;;;;;;;5008102;28;20412;-79
2022/03/04 01:56:10;;;;;;;28.10;11.77;;;;;;;;;;4990522;28;20023;-80
2022/03/04 01:58:35;;;;;;;26.13;10.93;;;;;;;;;;5009053;28;20026;-79
2022/03/04 02:01:00;;;;;;;29.88;12.20;;;;;;;;;;5007930;28;20033;-80
2022/03/04 02:03:26;;;;;;;28.15;11.75;;;;;;;;;;5008147;28;20030;-81
2022/03/04 02:05:51;;;;;;;30.45;12.52;;;;;;;;;;4990745;28;20030;-79
2022/03/04 02:08:17;;;;;;;28.33;11.68;;;;;;;;;;5008157;28;20029;-80
2022/03/04 02:10:42;;;;;;;30.88;12.63;;;;;;;;;;5008941;28;20085;-79
2022/03/04 02:13:07;;;;;;;30.17;12.38;;;;;;;;;;5008842;28;20094;-79
2022/03/04 02:15:33;;;;;;;29.25;11.85;;;;;;;;;;4991057;28;20033;-80
2022/03/04 02:17:58;;;;;;;27.05;12.15;;;;;;;;;;5007720;28;20033;-79
2022/03/04 02:20:23;;;;;;;29.40;12.35;;;;;;;;;;5007727;28;20037;-79
2022/03/04 02:22:50;;;;;;;31.95;12.65;;;;;;;;;;5008215;28;20027;-79
2022/03/04 02:25:15;;;;;;;27.33;11.82;;;;;;;;;;5007875;28;20033;-79
2022/03/04 02:27:40;;;;;;;33.22;11.85;;;;;;;;;;4990912;28;20392;-79
2022/03/04 02:30:06;;;;;;;28.73;12.35;;;;;;;;;;5007991;28;20057;-79
2022/03/04 02:32:31;;;;;;;27.77;12.70;;;;;;;;;;5007983;28;20014;-78
2022/03/04 02:34:57;;;;;;;29.52;12.30;;;;;;;;;;5007423;28;20103;-79
2022/03/04 02:37:23;;;;;;;30.17;11.43;;;;;;;;;;5008389;28;20030;-78
2022/03/04 02:39:49;;;;;;;28.48;12.80;;;;;;;;;;5008643;28;20022;-81
2022/03/04 02:42:15;;;;;;;30.27;13.00;;;;;;;;;;4990177;28;20022;-79
2022/03/04 02:44:40;;;;;;;30.80;12.30;;;;;;;;;;5011377;28;20049;-80
2022/03/04 02:47:05;;;;;;;31.20;12.52;;;;;;;;;;5011820;28;20026;-80
2022/03/04 02:49:31;;;;;;;28.48;12.13;;;;;;;;;;5011684;28;20101;-79
2022/03/04 02:51:56;;;;;;;27.30;10.57;;;;;;;;;;4994496;28;20014;-80
2022/03/04 02:54:21;;;;;;;28.20;12.05;;;;;;;;;;5012101;28;20046;-79
2022/03/04 02:56:46;;;;;;;24.30;10.52;;;;;;;;;;5012413;28;20468;-80
2022/03/04 02:59:11;;;;;;;33.40;12.45;;;;;;;;;;5012266;28;20022;-78
2022/03/04 03:01:37;;;;;;;36.17;13.68;;;;;;;;;;5012084;28;20041;-80
2022/03/04 03:04:02;;;;;;;29.48;9.85;;;;;;;;;;5012220;28;20062;-79
2022/03/04 03:06:27;;;;;;;29.70;10.57;;;;;;;;;;4992642;28;20029;-78
2022/03/04 03:08:52;;;;;;;34.42;11.50;;;;;;;;;;4991495;28;20369;-79
2022/03/04 03:11:18;;;;;;;40.25;12.15;;;;;;;;;;5007701;28;20495;-78
2022/03/04 03:13:43;;;;;;;33.28;13.05;;;;;;;;;;4989235;28;20033;-79
2022/03/04 03:16:08;;;;;;;30.45;11.77;;;;;;;;;;5006804;28;20037;-80
2022/03/04 03:18:34;;;;;;;35.67;12.40;;;;;;;;;;5007941;28;20063;-79
2022/03/04 03:20:59;;;;;;;36.50;13.60;;;;;;;;;;4990782;28;20026;-79
2022/03/04 03:23:24;;;;;;;36.22;13.15;;;;;;;;;;5007413;28;20026;-79
2022/03/04 03:25:49;;;;;;;35.00;12.48;;;;;;;;;;5008425;28;20061;-81
2022/03/04 03:28:14;;;;;;;35.88;12.45;;;;;;;;;;5008226;28;20038;-80
2022/03/04 03:30:40;;;;;;;43.58;13.52;;;;;;;;;;5008310;28;20041;-78
2022/03/04 03:33:05;;;;;;;32.83;13.00;;;;;;;;;;5009457;28;20018;-79
2022/03/04 03:35:30;;;;;;;40.83;13.18;;;;;;;;;;5009658;28;20080;-79
2022/03/04 03:37:55;;;;;;;33.42;13.20;;;;;;;;;;4991642;28;20056;-79
2022/03/04 03:40:21;;;;;;;38.08;13.65;;;;;;;;;;5008791;28;20033;-80
2022/03/04 03:42:46;;;;;;;38.97;13.32;;;;;;;;;;5008343;28;20062;-79
2022/03/04 03:45:12;;;;;;;33.63;11.55;;;;;;;;;;5008516;28;20030;-79
2022/03/04 03:47:39;;;;;;;32.17;12.82;;;;;;;;;;4990999;28;20030;-79
2022/03/04 03:50:05;;;;;;;30.58;13.43;;;;;;;;;;5009535;28;20030;-78
2022/03/04 03:52:31;;;;;;;34.13;13.82;;;;;;;;;;5008555;28;20018;-79
2022/03/04 03:54:56;;;;;;;39.30;13.25;;;;;;;;;;5008546;28;20022;-79
2022/03/04 03:57:21;;;;;;;37.22;13.48;;;;;;;;;;5009332;28;20023;-79
2022/03/04 03:59:47;;;;;;;39.53;14.20;;;;;;;;;;5009494;28;20052;-78
2022/03/04 04:02:12;;;;;;;38.13;13.52;;;;;;;;;;5009210;28;20030;-78
2022/03/04 04:04:38;;;;;;;34.15;13.27;;;;;;;;;;5008754;28;20049;-81
2022/03/04 04:07:08;;;;;;;39.53;14.07;;;;;;;;;;5008996;28;20022;-79
2022/03/04 04:09:33;;;;;;;37.08;13.93;;;;;;;;;;5007202;28;20026;-80
2022/03/04 04:12:00;;;;;;;36.15;13.40;;;;;;;;;;4988915;28;20029;-78
2022/03/04 04:14:26;;;;;;;31.40;11.75;;;;;;;;;;5006513;28;20399;-79
2022/03/04 04:16:51;;;;;;;41.92;14.02;;;;;;;;;;5005194;28;20030;-79
2022/03/04 04:19:17;;;;;;;35.72;12.02;;;;;;;;;;4987823;28;20094;-81
2022/03/04 04:21:42;;;;;;;42.40;14.23;;;;;;;;;;4988603;28;20034;-79
2022/03/04 04:24:07;;;;;;;48.50;14.57;;;;;;;;;;5007393;28;20112;-80
2022/03/04 04:26:34;;;;;;;44.25;14.55;;;;;;;;;;5007263;28;20108;-78
2022/03/04 04:28:59;;;;;;;47.10;14.50;;;;;;;;;;5007365;28;20082;-80
2022/03/04 04:31:25;;;;;;;43.63;14.27;;;;;;;;;;4992937;28;20022;-79
2022/03/04 04:33:50;;;;;;;41.13;12.73;;;;;;;;;;4994648;28;20033;-79
2022/03/04 04:36:16;;;;;;;49.53;14.25;;;;;;;;;;5011768;28;20037;-80
2022/03/04 04:38:41;;;;;;;51.42;16.13;;;;;;;;;;5011026;28;20470;-79
2022/03/04 04:41:06;;;;;;;41.45;14.65;;;;;;;;;;5010657;28;20030;-79
2022/03/04 04:43:33;;;;;;;53.47;15.18;;;;;;;;;;4993762;28;20026;-81
2022/03/04 04:45:58;;;;;;;44.17;14.25;;;;;;;;;;5008291;28;20026;-80
2022/03/04 04:48:23;;;;;;;39.83;13.48;;;;;;;;;;4989394;28;20030;-80
2022/03/04 04:50:48;;;;;;;41.20;13.80;;;;;;;;;;5006081;28;20018;-78
2022/03/04 04:53:14;;;;;;;45.22;15.23;;;;;;;;;;4988632;28;20022;-79
2022/03/04 04:55:39;;;;;;;43.55;14.20;;;;;;;;;;4990183;28;20395;-79
2022/03/04 04:58:04;;;;;;;34.53;11.15;;;;;;;;;;5006389;28;20449;-79
2022/03/04 05:00:30;;;;;;;40.40;14.20;;;;;;;;;;4988340;28;20032;-79
2022/03/04 05:02:55;;;;;;;36.67;13.65;;;;;;;;;;5005083;28;20385;-80
2022/03/04 05:05:20;;;;;;;36.35;12.57;;;;;;;;;;4987761;28;20023;-79
2022/03/04 05:07:46;;;;;;;38.03;13.85;;;;;;;;;;4988260;28;20127;-80
2022/03/04 05:10:12;;;;;;;35.85;11.75;;;;;;;;;;4986755;28;20095;-82
2022/03/04 05:12:37;;;;;;;39.90;12.63;;;;;;;;;;5004072;28;20049;-80
2022/03/04 05:15:03;;;;;;;34.22;11.77;;;;;;;;;;5005849;28;20041;-79
2022/03/04 05:17:28;;;;;;;36.88;13.30;;;;;;;;;;5005273;28;20026;-80
2022/03/04 05:19:53;;;;;;;30.60;11.43;;;;;;;;;;5004327;28;20033;-80
2022/03/04 05:22:19;;;;;;;25.83;11.23;;;;;;;;;;4984563;28;20046;-81
2022/03/04 05:24:44;;;;;;;34.65;12.27;;;;;;;;;;4984012;28;20022;-80
2022/03/04 05:27:09;;;;;;;28.88;11.98;;;;;;;;;;5001537;28;20050;-79
2022/03/04 05:29:35;;;;;;;28.33;11.88;;;;;;;;;;5000920;28;20023;-80
2022/03/04 05:32:01;;;;;;;35.92;12.60;;;;;;;;;;5000292;28;20049;-79
2022/03/04 05:34:26;;;;;;;38.03;12.63;;;;;;;;;;5002505;28;20104;-81
2022/03/04 05:36:51;;;;;;;30.35;11.35;;;;;;;;;;5005581;28;20034;-80
2022/03/04 05:39:17;;;;;;;34.70;12.75;;;;;;;;;;5008520;28;20102;-79
2022/03/04 05:41:42;;;;;;;34.40;11.68;;;;;;;;;;5004857;28;20041;-80
2022/03/04 05:44:07;;;;;;;26.60;10.65;;;;;;;;;;4986635;28;20033;-80
2022/03/04 05:46:33;;;;;;;28.17;11.30;;;;;;;;;;5002391;28;20034;-79
2022/03/04 05:48:58;;;;;;;34.90;12.23;;;;;;;;;;5006246;28;20061;-80
2022/03/04 05:51:23;;;;;;;36.75;11.98;;;;;;;;;;5007631;28;20057;-80
2022/03/04 05:53:49;;;;;;;33.97;13.18;;;;;;;;;;5004536;28;20518;-80
2022/03/04 05:56:15;;;;;;;34.63;12.65;;;;;;;;;;4988410;28;20126;-80
2022/03/04 05:58:40;;;;;;;38.47;13.48;;;;;;;;;;5007505;28;20037;-80
2022/03/04 06:01:08;;;;;;;36.08;13.35;;;;;;;;;;5006576;28;20034;-81
2022/03/04 06:03:34;;;;;;;41.38;13.65;;;;;;;;;;5008592;28;20034;-80
2022/03/04 06:05:59;;;;;;;38.45;13.80;;;;;;;;;;5007242;28;20385;-80
2022/03/04 06:08:25;;;;;;;37.13;11.85;;;;;;;;;;4988258;28;20033;-81
2022/03/04 06:10:50;;;;;;;35.78;12.02;;;;;;;;;;5003536;28;20037;-80
2022/03/04 06:13:15;;;;;;;36.88;12.25;;;;;;;;;;4986040;28;20146;-80
2022/03/04 06:15:41;;;;;;;26.80;9.70;;;;;;;;;;5002508;28;20121;-79
2022/03/04 06:18:06;;;;;;;32.70;12.88;;;;;;;;;;4984144;28;20484;-79
2022/03/04 06:20:31;;;;;;;31.25;11.68;;;;;;;;;;4984440;28;20026;-81
2022/03/04 06:22:58;;;;;;;27.77;11.43;;;;;;;;;;5002062;28;20057;-80
2022/03/04 06:25:24;;;;;;;30.42;11.70;;;;;;;;;;5002737;28;20037;-80
2022/03/04 06:27:54;;;;;;;37.67;12.15;;;;;;;;;;5002253;28;20022;-80
2022/03/04 06:30:19;;;;;;;25.63;10.10;;;;;;;;;;5002921;28;20030;-79
2022/03/04 06:32:45;;;;;;;26.67;10.70;;;;;;;;;;5003126;28;20038;-79
2022/03/04 06:35:10;;;;;;;29.50;11.55;;;;;;;;;;4984823;28;20065;-79
2022/03/04 06:37:35;;;;;;;27.52;10.38;;;;;;;;;;5003274;28;20050;-79
2022/03/04 06:40:02;;;;;;;26.30;11.88;;;;;;;;;;4985830;28;20054;-79
2022/03/04 06:42:27;;;;;;;29.70;11.35;;;;;;;;;;4987451;28;20085;-80
2022/03/04 06:44:52;;;;;;;22.33;8.80;;;;;;;;;;4988335;28;20057;-79
2022/03/04 06:47:18;;;;;;;23.40;10.00;;;;;;;;;;5004622;28;20030;-79
2022/03/04 06:49:43;;;;;;;22.13;9.55;;;;;;;;;;4987334;28;20081;-81
2022/03/04 06:52:08;;;;;;;27.40;10.25;;;;;;;;;;5004293;28;20026;-79
2022/03/04 06:54:36;;;;;;;26.27;11.38;;;;;;;;;;5003154;28;20045;-78
2022/03/04 06:57:02;;;;;;;27.20;11.00;;;;;;;;;;5003304;28;20082;-78
2022/03/04 06:59:27;;;;;;;27.55;10.88;;;;;;;;;;5000368;28;20090;-81
2022/03/04 07:01:52;;;;;;;24.00;9.40;;;;;;;;;;5000802;28;20054;-79
2022/03/04 07:04:18;;;;;;;22.77;10.07;;;;;;;;;;4999185;28;20030;-80
2022/03/04 07:06:43;;;;;;;26.27;11.18;;;;;;;;;;5000952;28;20101;-79
2022/03/04 07:09:08;;;;;;;24.48;10.57;;;;;;;;;;5000871;28;20550;-79
2022/03/04 07:11:33;;;;;;;22.20;8.43;;;;;;;;;;5001425;28;20026;-78
2022/03/04 07:13:59;;;;;;;28.15;11.07;;;;;;;;;;4983647;28;20025;-80
2022/03/04 07:16:24;;;;;;;25.63;10.50;;;;;;;;;;4984242;28;20034;-79
2022/03/04 07:18:50;;;;;;;21.85;10.40;;;;;;;;;;5001140;28;20057;-79
2022/03/04 07:21:15;;;;;;;23.73;9.15;;;;;;;;;;5001638;28;20396;-78
2022/03/04 07:23:40;;;;;;;27.67;10.50;;;;;;;;;;4984402;28;20087;-79
2022/03/04 07:26:09;;;;;;;23.50;9.75;;;;;;;;;;5001375;28;20027;-79
2022/03/04 07:28:34;;;;;;;24.92;9.13;;;;;;;;;;4982384;28;20553;-81
2022/03/04 07:30:59;;;;;;;20.20;9.75;;;;;;;;;;4997436;28;20034;-77
2022/03/04 07:33:24;;;;;;;24.50;10.10;;;;;;;;;;4996820;28;20511;-78
2022/03/04 07:35:50;;;;;;;23.95;9.63;;;;;;;;;;4997289;28;20411;-77
2022/03/04 07:38:15;;;;;;;19.10;9.20;;;;;;;;;;4997414;28;20018;-76
2022/03/04 07:40:40;;;;;;;26.17;10.23;;;;;;;;;;4997167;28;20033;-76
2022/03/04 07:43:06;;;;;;;23.23;9.40;;;;;;;;;;4996623;28;20073;-77
2022/03/04 07:45:31;;;;;;;22.83;9.07;;;;;;;;;;4996651;28;20026;-76
2022/03/04 07:47:57;;;;;;;21.73;8.18;;;;;;;;;;4996471;28;20049;-77
2022/03/04 07:50:22;;;;;;;24.45;10.23;;;;;;;;;;4997299;28;20030;-80
2022/03/04 07:52:47;;;;;;;24.33;10.30;;;;;;;;;;4981512;28;20018;-79
2022/03/04 07:55:15;;;;;;;25.02;10.45;;;;;;;;;;4981575;28;20499;-81
2022/03/04 07:57:40;;;;;;;25.98;10.25;;;;;;;;;;5000092;28;20037;-79
2022/03/04 08:00:08;;;;;;;26.90;10.95;;;;;;;;;;4981518;28;20027;-79
2022/03/04 08:02:34;;;;;;;27.13;10.30;;;;;;;;;;4984015;28;20026;-81
2022/03/04 08:04:59;;;;;;;24.50;9.75;;;;;;;;;;4992751;28;20023;-81
2022/03/04 08:07:24;;;;;;;22.27;8.80;;;;;;;;;;5009237;28;20026;-80
2022/03/04 08:09:50;;;;;;;23.35;10.32;;;;;;;;;;5009208;28;20030;-81
2022/03/04 08:12:15;;;;;;;22.17;8.63;;;;;;;;;;5008478;28;20555;-81
2022/03/04 08:14:40;;;;;;;23.60;9.95;;;;;;;;;;5008647;28;20030;-82
2022/03/04 08:17:06;;;;;;;22.30;9.88;;;;;;;;;;4991164;28;20050;-79
2022/03/04 08:19:33;;;;;;;29.15;10.00;;;;;;;;;;5008637;28;20046;-80
2022/03/04 08:21:58;;;;;;;17.80;7.10;;;;;;;;;;5009181;28;20082;-80
2022/03/04 08:24:24;;;;;;;26.73;10.02;;;;;;;;;;4991522;28;20034;-81
2022/03/04 08:26:49;;;;;;;25.40;9.23;;;;;;;;;;5009440;28;20026;-81
2022/03/04 08:29:15;;;;;;;24.83;9.93;;;;;;;;;;5009192;28;20061;-82
2022/03/04 08:31:40;;;;;;;23.88;10.85;;;;;;;;;;5009704;28;20030;-80
2022/03/04 08:34:06;;;;;;;19.35;8.95;;;;;;;;;;5011650;28;20030;-80
2022/03/04 08:36:32;;;;;;;17.33;7.85;;;;;;;;;;4992926;28;20046;-81
2022/03/04 08:38:59;;;;;;;22.40;9.13;;;;;;;;;;4992926;28;20030;-80
2022/03/04 08:41:24;;;;;;;23.33;8.98;;;;;;;;;;5009507;28;20486;-80
2022/03/04 08:43:51;;;;;;;24.70;10.10;;;;;;;;;;5007327;28;20030;-79
2022/03/04 08:46:17;;;;;;;25.00;9.52;;;;;;;;;;5009584;28;20050;-81
2022/03/04 08:48:42;;;;;;;25.98;9.68;;;;;;;;;;5009690;28;20037;-80
2022/03/04 08:51:08;;;;;;;21.60;8.93;;;;;;;;;;5010089;28;20034;-79
2022/03/04 08:53:34;;;;;;;25.10;9.65;;;;;;;;;;5009488;28;20392;-79
2022/03/04 08:55:59;;;;;;;22.38;9.18;;;;;;;;;;5010245;28;20041;-82
2022/03/04 08:58:24;;;;;;;22.08;9.52;;;;;;;;;;5009864;28;20038;-81
2022/03/04 09:00:50;;;;;;;23.10;9.13;;;;;;;;;;4990919;28;20034;-80
2022/03/04 09:03:15;;;;;;;21.63;9.38;;;;;;;;;;4990904;28;20026;-80
2022/03/04 09:05:40;;;;;;;25.50;10.10;;;;;;;;;;4991818;28;20049;-79
2022/03/04 09:08:06;;;;;;;28.40;10.68;;;;;;;;;;5007370;28;20068;-80
2022/03/04 09:10:31;;;;;;;24.52;10.57;;;;;;;;;;5008209;28;20030;-81
2022/03/04 09:12:56;;;;;;;31.05;10.65;;;;;;;;;;5010047;28;20101;-81
2022/03/04 09:15:22;;;;;;;26.20;9.73;;;;;;;;;;5008473;28;20033;-79
2022/03/04 09:17:47;;;;;;;23.20;9.88;;;;;;;;;;5008588;28;20403;-80
2022/03/04 09:20:14;;;;;;;17.98;7.28;;;;;;;;;;5007114;28;20026;-81
2022/03/04 09:22:40;;;;;;;26.73;9.82;;;;;;;;;;5007926;28;20034;-81
2022/03/04 09:25:05;;;;;;;22.08;9.25;;;;;;;;;;5006406;28;20387;-81
2022/03/04 09:27:30;;;;;;;23.00;9.40;;;;;;;;;;5005504;28;20030;-81
2022/03/04 09:29:56;;;;;;;23.20;9.98;;;;;;;;;;5007543;28;20029;-80
2022/03/04 09:32:21;;;;;;;23.40;10.82;;;;;;;;;;5005891;28;20057;-81
2022/03/04 09:34:47;;;;;;;26.83;10.90;;;;;;;;;;4989027;28;20022;-81
2022/03/04 09:37:12;;;;;;;25.73;10.30;;;;;;;;;;5007539;28;20029;-80
2022/03/04 09:39:37;;;;;;;25.38;10.02;;;;;;;;;;5006760;28;20108;-80
2022/03/04 09:42:03;;;;;;;26.50;9.50;;;;;;;;;;5008097;28;20033;-81
2022/03/04 09:44:28;;;;;;;27.55;10.05;;;;;;;;;;4990010;28;20038;-79
2022/03/04 09:46:53;;;;;;;23.65;9.45;;;;;;;;;;5004264;28;20022;-81
2022/03/04 09:49:19;;;;;;;23.67;8.13;;;;;;;;;;5006244;28;20057;-80
2022/03/04 09:51:44;;;;;;;19.88;8.40;;;;;;;;;;5005442;28;20499;-80
2022/03/04 09:54:10;;;;;;;21.23;8.93;;;;;;;;;;5002662;28;20055;-80
2022/03/04 09:56:35;;;;;;;18.55;8.77;;;;;;;;;;5006319;28;20026;-81
2022/03/04 09:59:01;;;;;;;24.05;9.75;;;;;;;;;;5007420;28;20030;-80
2022/03/04 10:01:26;;;;;;;13.18;5.57;;;;;;;;;;4989060;28;20026;-81
2022/03/04 10:03:54;;;;;;;21.58;8.07;;;;;;;;;;5004639;28;20026;-80
2022/03/04 10:06:20;;;;;;;22.60;9.52;;;;;;;;;;5006007;28;20022;-81
2022/03/04 10:08:48;;;;;;;8.05;3.95;;;;;;;;;;5008266;28;20045;-82
2022/03/04 10:11:30;;;;;;;24.10;9.68;;;;;;;;;;4991509;28;20511;-80
2022/03/04 10:13:59;;;;;;;22.13;9.50;;;;;;;;;;5009664;28;20101;-82
2022/03/04 10:16:27;;;;;;;19.27;7.97;;;;;;;;;;4990063;28;20060;-82
2022/03/04 10:19:17;;;;;;;20.48;9.52;;;;;;;;;;5005812;28;20070;-80
2022/03/04 10:21:52;;;;;;;21.33;9.18;;;;;;;;;;5006019;28;20022;-80
2022/03/04 10:24:23;;;;;;;23.33;8.63;;;;;;;;;;4988655;28;20030;-81
2022/03/04 10:27:16;;;;;;;23.48;9.32;;;;;;;;;;5007131;28;20108;-80
2022/03/04 10:29:45;;;;;;;17.23;7.68;;;;;;;;;;5004848;28;20054;-81
2022/03/04 10:32:15;;;;;;;22.63;9.20;;;;;;;;;;5006131;28;20033;-81
2022/03/04 10:35:01;;;;;;;23.60;9.80;;;;;;;;;;5007736;28;20029;-81
2022/03/04 10:37:41;;;;;;;22.60;8.88;;;;;;;;;;4992179;28;20089;-81
2022/03/04 10:40:07;;;;;;;23.20;9.68;;;;;;;;;;5009286;28;20023;-81
2022/03/04 10:42:42;;;;;;;19.98;8.93;;;;;;;;;;4991242;28;20172;-81
2022/03/04 10:45:09;;;;;;;18.13;7.57;;;;;;;;;;5008084;28;20023;-79
2022/03/04 10:47:54;;;;;;;18.75;8.35;;;;;;;;;;4991364;28;20090;-81
2022/03/04 10:50:33;;;;;;;20.27;9.10;;;;;;;;;;5008467;28;20030;-80
2022/03/04 10:53:06;;;;;;;18.17;8.38;;;;;;;;;;5008635;28;20054;-80
2022/03/04 10:55:34;;;;;;;20.98;9.23;;;;;;;;;;5009521;28;20030;-81
2022/03/04 10:58:05;;;;;;;21.30;8.73;;;;;;;;;;4992749;28;20018;-80
2022/03/04 11:00:37;;;;;;;19.30;8.55;;;;;;;;;;4989984;28;20037;-81
2022/03/04 11:03:05;;;;;;;22.33;8.82;;;;;;;;;;4992525;28;20034;-82
2022/03/04 11:05:30;;;;;;;19.60;9.35;;;;;;;;;;4994762;28;20109;-81
2022/03/04 11:07:56;;;;;;;22.77;10.02;;;;;;;;;;4996611;28;20041;-80
2022/03/04 11:10:22;;;;;;;22.33;10.02;;;;;;;;;;5012789;28;20018;-81
2022/03/04 11:12:53;;;;;;;20.90;9.55;;;;;;;;;;5011307;28;20046;-82
2022/03/04 11:15:19;;;;;;;22.40;9.27;;;;;;;;;;4994026;28;20033;-80
2022/03/04 11:17:46;;;;;;;16.23;7.65;;;;;;;;;;5012064;28;20061;-81
2022/03/04 11:20:12;;;;;;;26.95;10.05;;;;;;;;;;5011248;28;20030;-81
2022/03/04 11:22:43;;;;;;;26.10;10.30;;;;;;;;;;4991071;28;20042;-81
2022/03/04 11:25:12;;;;;;;23.80;9.20;;;;;;;;;;4988775;28;20085;-81
2022/03/04 11:27:43;;;;;;;22.15;9.93;;;;;;;;;;4987864;28;20022;-80
2022/03/04 11:30:37;;;;;;;24.70;10.95;;;;;;;;;;5005644;28;20022;-80
2022/03/04 11:33:17;;;;;;;31.73;11.27;;;;;;;;;;5005359;28;20023;-80
2022/03/04 11:35:42;;;;;;;26.35;10.90;;;;;;;;;;5004983;28;20106;-79
2022/03/04 11:38:11;;;;;;;23.10;10.10;;;;;;;;;;5003791;28;20464;-80
2022/03/04 11:40:38;;;;;;;30.95;11.70;;;;;;;;;;5007184;28;20267;-81
2022/03/04 11:43:08;;;;;;;26.42;10.52;;;;;;;;;;4992962;28;20037;-80
2022/03/04 11:45:35;;;;;;;29.35;12.55;;;;;;;;;;5009043;28;20030;-79
2022/03/04 11:48:05;;;;;;;24.30;11.07;;;;;;;;;;5009943;28;20040;-80
2022/03/04 11:50:34;;;;;;;26.83;11.57;;;;;;;;;;4992914;28;20026;-81
2022/03/04 11:53:11;;;;;;;21.08;9.13;;;;;;;;;;4993778;28;20022;-80
2022/03/04 11:55:37;;;;;;;30.65;11.90;;;;;;;;;;5012732;28;20045;-80
2022/03/04 11:58:04;;;;;;;29.25;10.77;;;;;;;;;;5012866;28;20026;-80
2022/03/04 12:00:33;;;;;;;31.02;11.90;;;;;;;;;;4996449;28;20102;-80
2022/03/04 12:03:08;;;;;;;34.78;12.77;;;;;;;;;;4996748;28;20017;-81
2022/03/04 12:05:35;;;;;;;31.70;12.30;;;;;;;;;;5014368;28;20094;-82
2022/03/04 12:08:00;;;;;;;28.75;11.80;;;;;;;;;;4997478;28;20022;-82
2022/03/04 12:10:40;;;;;;;30.10;12.23;;;;;;;;;;5014444;28;20030;-80
2022/03/04 12:13:08;;;;;;;33.63;12.40;;;;;;;;;;4996170;28;20461;-80
2022/03/04 12:15:37;;;;;;;27.42;11.38;;;;;;;;;;5011371;28;20146;-80
2022/03/04 12:18:08;;;;;;;26.10;11.50;;;;;;;;;;5012373;28;20053;-80
2022/03/04 12:20:39;;;;;;;24.88;10.35;;;;;;;;;;4995754;28;20494;-81
2022/03/04 12:23:10;;;;;;;23.83;10.93;;;;;;;;;;5011626;28;20068;-79
2022/03/04 12:25:58;;;;;;;32.65;12.35;;;;;;;;;;4994683;28;20035;-83
2022/03/04 12:28:44;;;;;;;27.00;10.77;;;;;;;;;;4994355;28;20037;-79
2022/03/04 12:31:12;;;;;;;29.50;11.68;;;;;;;;;;5010173;28;20061;-79
2022/03/04 12:33:40;;;;;;;28.00;11.48;;;;;;;;;;5008731;28;20073;-80
2022/03/04 12:36:11;;;;;;;32.60;12.82;;;;;;;;;;5009386;28;20089;-81
2022/03/04 12:38:42;;;;;;;28.25;11.48;;;;;;;;;;5009362;28;20514;-81
2022/03/04 12:41:16;;;;;;;32.67;12.05;;;;;;;;;;4994135;28;20072;-80
2022/03/04 12:43:42;;;;;;;;;;;;;;;;;;4995032;28;20106;-81
2022/03/04 12:46:08;;;;;;;26.08;10.65;;;;;;;;;;5012395;28;19925;-80
2022/03/04 12:48:34;;;;;;;28.63;11.73;;;;;;;;;;5011675;28;20030;-81
2022/03/04 12:50:59;;;;;;;30.08;12.25;;;;;;;;;;4994040;28;20026;-80
2022/03/04 12:53:28;;;;;;;22.58;10.25;;;;;;;;;;4993551;28;20050;-81
2022/03/04 12:55:58;;;;;;;26.15;11.30;;;;;;;;;;4993025;28;20125;-80
2022/03/04 12:58:45;;;;;;;24.63;10.00;;;;;;;;;;5009558;28;20454;-80
2022/03/04 13:01:13;;;;;;;20.58;10.35;;;;;;;;;;5009807;28;20377;-81
2022/03/04 13:03:43;;;;;;;32.42;11.45;;;;;;;;;;5010705;28;20018;-82
2022/03/04 13:06:08;;;;;;;23.30;11.15;;;;;;;;;;4992115;28;20041;-80
2022/03/04 13:08:33;;;;;;;25.83;9.95;;;;;;;;;;5009800;28;20038;-81
2022/03/04 13:11:13;;;;;;;26.52;11.57;;;;;;;;;;5010628;28;20053;-80
2022/03/04 13:13:50;;;;;;;22.83;10.23;;;;;;;;;;5011121;28;20029;-80
2022/03/04 13:16:23;;;;;;;23.73;11.07;;;;;;;;;;5011422;28;20539;-80
2022/03/04 13:18:49;;;;;;;27.80;10.90;;;;;;;;;;5012144;28;20026;-81
2022/03/04 13:21:15;;;;;;;23.08;11.25;;;;;;;;;;5011863;28;20054;-80
2022/03/04 13:23:52;;;;;;;22.88;10.45;;;;;;;;;;5012316;28;20379;-79
2022/03/04 13:26:22;;;;;;;23.38;10.02;;;;;;;;;;4993993;28;20029;-80
2022/03/04 13:29:00;;;;;;;22.20;10.73;;;;;;;;;;5010809;28;20041;-80
2022/03/04 13:31:28;;;;;;;21.55;9.93;;;;;;;;;;5011291;28;20026;-80
2022/03/04 13:34:09;;;;;;;21.92;9.25;;;;;;;;;;5010499;28;20030;-81
2022/03/04 13:36:42;;;;;;;26.38;10.45;;;;;;;;;;5012085;28;20098;-82
2022/03/04 13:39:12;;;;;;;24.40;10.05;;;;;;;;;;5010884;28;20037;-81
2022/03/04 13:41:38;;;;;;;18.42;9.40;;;;;;;;;;5009099;28;20050;-81
2022/03/04 13:44:08;;;;;;;21.98;9.38;;;;;;;;;;5008861;28;20038;-82
2022/03/04 13:46:34;;;;;;;19.08;7.85;;;;;;;;;;5009414;28;20053;-80
2022/03/04 13:49:01;;;;;;;21.02;9.25;;;;;;;;;;4992670;28;20026;-81
2022/03/04 13:51:27;;;;;;;16.77;8.90;;;;;;;;;;4992314;28;20030;-81
2022/03/04 13:53:56;;;;;;;21.80;9.68;;;;;;;;;;4993044;28;20159;-81
2022/03/04 13:56:24;;;;;;;18.77;10.00;;;;;;;;;;5010256;28;20022;-82
2022/03/04 13:58:59;;;;;;;22.13;10.15;;;;;;;;;;4988863;28;20050;-82
2022/03/04 14:01:25;;;;;;;19.10;9.52;;;;;;;;;;5007992;28;20060;-81
2022/03/04 14:03:51;;;;;;;19.95;9.57;;;;;;;;;;4991503;28;20486;-81
2022/03/04 14:06:23;;;;;;;21.80;9.60;;;;;;;;;;5008517;28;20158;-80
2022/03/04 14:08:48;;;;;;;22.27;9.25;;;;;;;;;;4989939;28;20026;-81
2022/03/04 14:11:14;;;;;;;18.77;8.93;;;;;;;;;;4990325;28;20030;-81
2022/03/04 14:13:40;;;;;;;24.20;10.60;;;;;;;;;;5008780;28;20027;-81
2022/03/04 14:16:08;;;;;;;24.73;10.50;;;;;;;;;;5008818;28;20100;-81
2022/03/04 14:18:34;;;;;;;22.70;10.35;;;;;;;;;;4990761;28;20045;-81
2022/03/04 14:21:06;;;;;;;18.52;9.35;;;;;;;;;;5007495;28;20423;-80